Time;durP1;ratioP1;P1;durP2;ratioP2;P2;SDS_P1;SDS_P2;PMS_P1;PMS_P2;Temp;Humidity;BMP_temperature;BMP_pressure;BME280_temperature;BME280_humidity;BME280_pressure;Samples;Min_cycle;Max_cycle;Signal;HPM_P1;HPM_P2
2020/12/01 00:02:14;;;;;;;47.97;19.00;;;9.40;66.10;;;;;;4961078;28;20035;-65
2020/12/01 00:04:40;;;;;;;45.33;18.08;;;9.40;66.00;;;;;;4958114;28;20043;-65
2020/12/01 00:07:05;;;;;;;45.15;18.67;;;9.40;66.10;;;;;;4954397;28;20041;-65
2020/12/01 00:09:31;;;;;;;45.40;18.13;;;9.40;66.00;;;;;;4954326;28;20038;-65
2020/12/01 00:11:57;;;;;;;49.53;18.25;;;9.40;66.00;;;;;;4959865;28;20591;-65
2020/12/01 00:14:22;;;;;;;46.08;18.45;;;9.50;66.10;;;;;;4957136;28;20062;-65
2020/12/01 00:16:48;;;;;;;48.55;19.10;;;9.50;66.10;;;;;;4954720;28;20229;-65
2020/12/01 00:19:14;;;;;;;49.25;19.35;;;9.50;66.10;;;;;;4958645;28;20491;-65
2020/12/01 00:21:43;;;;;;;50.35;19.50;;;9.50;66.00;;;;;;4948544;28;20107;-65
2020/12/01 00:24:08;;;;;;;46.65;19.45;;;9.50;66.10;;;;;;4948880;28;20042;-65
2020/12/01 00:26:34;;;;;;;48.95;19.77;;;9.60;66.10;;;;;;4945839;28;20126;-65
2020/12/01 00:28:59;;;;;;;44.38;19.52;;;9.60;66.20;;;;;;4958716;28;20483;-65
2020/12/01 00:31:25;;;;;;;53.63;20.70;;;9.50;66.10;;;;;;4959685;28;20053;-65
2020/12/01 00:33:53;;;;;;;53.35;19.75;;;9.60;66.20;;;;;;4961089;28;20050;-65
2020/12/01 00:36:24;;;;;;;44.58;19.60;;;9.60;66.20;;;;;;4958726;28;20094;-65
2020/12/01 00:38:50;;;;;;;47.70;20.05;;;9.60;66.20;;;;;;4959146;28;20043;-65
2020/12/01 00:41:18;;;;;;;48.70;20.45;;;9.60;66.10;;;;;;4956808;28;20167;-65
2020/12/01 00:43:44;;;;;;;46.92;19.15;;;9.60;66.20;;;;;;4955472;28;20541;-65
2020/12/01 00:46:09;;;;;;;46.45;18.20;;;9.60;66.20;;;;;;4959110;28;20054;-65
2020/12/01 00:48:35;;;;;;;47.88;19.20;;;9.70;66.20;;;;;;4958244;28;20090;-65
2020/12/01 00:51:01;;;;;;;45.28;18.08;;;9.60;66.20;;;;;;4946655;28;20043;-65
2020/12/01 00:53:26;;;;;;;51.97;19.73;;;9.70;66.30;;;;;;4959651;28;20567;-65
2020/12/01 00:55:52;;;;;;;46.90;18.60;;;9.70;66.30;;;;;;4956457;28;20581;-65
2020/12/01 00:58:17;;;;;;;46.85;19.50;;;9.70;66.30;;;;;;4961020;28;20046;-65
2020/12/01 01:00:43;;;;;;;45.58;18.58;;;9.70;66.30;;;;;;4957349;28;20074;-65
2020/12/01 01:03:09;;;;;;;51.60;19.48;;;9.70;66.30;;;;;;4954547;28;20122;-65
2020/12/01 01:05:34;;;;;;;49.50;18.33;;;9.80;66.30;;;;;;4955358;28;20039;-65
2020/12/01 01:08:00;;;;;;;51.65;18.88;;;9.80;66.30;;;;;;4963039;28;20046;-65
2020/12/01 01:10:28;;;;;;;48.47;19.20;;;9.80;66.30;;;;;;4962061;28;20034;-65
2020/12/01 01:12:54;;;;;;;56.47;21.05;;;9.80;66.20;;;;;;4956968;28;20027;-65
2020/12/01 01:15:23;;;;;;;58.28;21.10;;;9.90;66.30;;;;;;4954894;28;20038;-65
2020/12/01 01:17:49;;;;;;;53.10;19.02;;;9.90;66.30;;;;;;4951205;28;20127;-65
2020/12/01 01:20:15;;;;;;;44.33;18.58;;;9.90;67.00;;;;;;4953732;28;20129;-65
2020/12/01 01:22:40;;;;;;;47.92;20.52;;;9.90;66.30;;;;;;4959419;28;20171;-65
2020/12/01 01:25:07;;;;;;;57.78;21.58;;;9.90;66.20;;;;;;4959619;28;20089;-65
2020/12/01 01:27:32;;;;;;;51.72;20.45;;;10.00;66.30;;;;;;4959505;28;20047;-65
2020/12/01 01:29:58;;;;;;;55.40;20.48;;;10.00;66.20;;;;;;4957106;28;20516;-65
2020/12/01 01:32:24;;;;;;;57.55;21.50;;;10.00;66.20;;;;;;4955777;28;20058;-65
2020/12/01 01:34:49;;;;;;;60.05;22.02;;;10.00;66.20;;;;;;4956110;28;20035;-65
2020/12/01 01:37:15;;;;;;;55.33;21.63;;;10.00;66.20;;;;;;4956508;28;20394;-65
2020/12/01 01:39:40;;;;;;;54.67;21.52;;;10.00;66.30;;;;;;4958644;28;20086;-65
2020/12/01 01:42:07;;;;;;;56.88;21.45;;;10.10;66.30;;;;;;4952730;28;20090;-65
2020/12/01 01:44:33;;;;;;;59.38;21.55;;;10.10;66.30;;;;;;4957604;28;20039;-65
2020/12/01 01:47:14;;;;;;;55.72;21.98;;;10.10;66.30;;;;;;4946923;28;20282;-65
2020/12/01 01:49:42;;;;;;;58.42;21.45;;;10.10;66.30;;;;;;4957337;28;20114;-65
2020/12/01 01:52:25;;;;;;;64.85;22.50;;;10.20;66.30;;;;;;4955035;28;20122;-65
2020/12/01 01:54:56;;;;;;;60.30;21.48;;;10.20;66.20;;;;;;4957055;28;20030;-65
2020/12/01 01:57:22;;;;;;;55.83;21.50;;;10.20;66.10;;;;;;4957447;28;20043;-65
2020/12/01 01:59:51;;;;;;;64.80;21.35;;;10.20;66.10;;;;;;4960758;28;20038;-65
2020/12/01 02:02:17;;;;;;;53.85;20.30;;;10.30;66.30;;;;;;4956249;28;20050;-66
2020/12/01 02:04:43;;;;;;;54.22;20.13;;;10.30;66.30;;;;;;4956350;28;20182;-65
2020/12/01 02:07:08;;;;;;;54.40;20.73;;;10.30;66.30;;;;;;4956900;28;20423;-65
2020/12/01 02:09:47;;;;;;;50.03;20.02;;;10.30;66.20;;;;;;4955892;28;20051;-65
2020/12/01 02:12:16;;;;;;;54.85;20.77;;;10.40;66.30;;;;;;4952723;28;20043;-64
2020/12/01 02:14:44;;;;;;;55.10;19.80;;;10.40;66.30;;;;;;4954445;28;20071;-65
2020/12/01 02:17:19;;;;;;;55.08;20.83;;;10.40;66.20;;;;;;4956752;28;20069;-65
2020/12/01 02:19:46;;;;;;;52.75;19.05;;;10.40;66.30;;;;;;4953946;28;20062;-65
2020/12/01 02:22:17;;;;;;;47.55;19.50;;;10.40;66.30;;;;;;4953493;28;20102;-65
2020/12/01 02:24:44;;;;;;;49.95;19.73;;;10.50;66.30;;;;;;4939503;28;20074;-64
2020/12/01 02:27:13;;;;;;;57.20;18.75;;;10.50;66.20;;;;;;4955715;28;20039;-65
2020/12/01 02:29:44;;;;;;;56.83;20.13;;;10.50;66.90;;;;;;4953392;28;20477;-65
2020/12/01 02:32:09;;;;;;;52.33;19.10;;;10.50;66.10;;;;;;4957562;28;20069;-65
2020/12/01 02:34:40;;;;;;;48.70;19.15;;;10.60;66.10;;;;;;4960383;28;20455;-65
2020/12/01 02:37:08;;;;;;;55.92;18.73;;;10.60;66.10;;;;;;4955980;28;20046;-65
2020/12/01 02:39:35;;;;;;;51.55;20.00;;;10.60;66.10;;;;;;4952832;28;20039;-65
2020/12/01 02:42:04;;;;;;;57.97;21.08;;;10.60;66.10;;;;;;4948884;28;20366;-65
2020/12/01 02:44:30;;;;;;;58.35;20.13;;;10.70;66.20;;;;;;4953438;28;20043;-65
2020/12/01 02:46:59;;;;;;;56.55;20.73;;;10.70;66.90;;;;;;4956752;28;20525;-65
2020/12/01 02:49:24;;;;;;;56.00;21.48;;;10.70;66.10;;;;;;4956995;28;20066;-65
2020/12/01 02:51:50;;;;;;;54.40;21.08;;;10.70;66.20;;;;;;4963694;28;20039;-65
2020/12/01 02:54:16;;;;;;;60.45;20.05;;;10.70;66.20;;;;;;4964209;28;20369;-65
2020/12/01 02:56:41;;;;;;;49.80;17.80;;;10.70;66.30;;;;;;4953553;28;20093;-65
2020/12/01 02:59:07;;;;;;;53.55;18.67;;;10.80;66.30;;;;;;4952147;28;20049;-65
2020/12/01 03:01:33;;;;;;;43.80;17.13;;;10.70;66.30;;;;;;4950577;28;20051;-65
2020/12/01 03:04:01;;;;;;;48.83;18.05;;;10.80;66.30;;;;;;4951924;28;20050;-65
2020/12/01 03:06:26;;;;;;;54.10;18.00;;;10.80;66.30;;;;;;4951715;28;20434;-65
2020/12/01 03:08:53;;;;;;;52.15;18.38;;;10.80;66.20;;;;;;4955933;28;20037;-65
2020/12/01 03:11:21;;;;;;;45.80;17.80;;;10.90;66.20;;;;;;4945538;28;20512;-65
2020/12/01 03:13:46;;;;;;;47.38;18.27;;;10.90;66.20;;;;;;4948802;28;20043;-65
2020/12/01 03:16:12;;;;;;;52.47;18.30;;;10.90;66.20;;;;;;4959792;28;20035;-65
2020/12/01 03:18:42;;;;;;;47.97;17.85;;;10.90;66.20;;;;;;4959353;28;20619;-65
2020/12/01 03:21:10;;;;;;;52.10;18.60;;;10.90;66.30;;;;;;4960451;28;20290;-65
2020/12/01 03:23:36;;;;;;;55.55;18.27;;;10.90;66.30;;;;;;4971396;23;20191;-63
2020/12/01 03:26:02;;;;;;;51.47;17.50;;;11.00;66.30;;;;;;4956551;28;20051;-63
2020/12/01 03:28:29;;;;;;;50.55;18.15;;;11.00;66.30;;;;;;4955274;28;20148;-63
2020/12/01 03:30:55;;;;;;;52.30;17.70;;;11.00;66.30;;;;;;4962052;28;20125;-63
2020/12/01 03:33:21;;;;;;;64.93;18.65;;;11.00;66.20;;;;;;4945490;28;20039;-63
2020/12/01 03:35:47;;;;;;;49.13;18.13;;;11.10;66.20;;;;;;4938266;28;20042;-63
2020/12/01 03:38:12;;;;;;;50.72;19.10;;;11.00;66.20;;;;;;4941846;28;20035;-63
2020/12/01 03:40:38;;;;;;;54.28;19.25;;;11.10;66.20;;;;;;4939311;28;20126;-63
2020/12/01 03:43:04;;;;;;;52.65;18.27;;;11.10;66.20;;;;;;4935276;28;20071;-63
2020/12/01 03:45:31;;;;;;;58.33;18.20;;;11.20;66.30;;;;;;4935854;28;20081;-63
2020/12/01 03:47:56;;;;;;;67.10;19.38;;;11.20;66.20;;;;;;4936283;28;20042;-63
2020/12/01 03:50:24;;;;;;;65.35;19.58;;;11.20;66.20;;;;;;4939154;28;20043;-63
2020/12/01 03:52:50;;;;;;;67.28;20.60;;;11.20;66.30;;;;;;4937044;28;20090;-63
2020/12/01 03:55:17;;;;;;;71.07;19.17;;;11.30;66.30;;;;;;4935980;28;20038;-63
2020/12/01 03:57:43;;;;;;;80.43;21.30;;;11.30;66.30;;;;;;4935013;28;20039;-63
2020/12/01 04:00:14;;;;;;;67.45;20.58;;;11.30;66.30;;;;;;4942300;28;20050;-63
2020/12/01 04:02:40;;;;;;;74.32;20.73;;;11.30;66.30;;;;;;4937981;28;20542;-63
2020/12/01 04:05:07;;;;;;;77.05;20.30;;;11.40;66.30;;;;;;4937013;28;20039;-63
2020/12/01 04:07:32;;;;;;;78.00;21.58;;;11.40;66.30;;;;;;4935238;28;20034;-63
2020/12/01 04:09:58;;;;;;;98.50;22.52;;;11.40;66.30;;;;;;4934376;28;20420;-63
2020/12/01 04:12:25;;;;;;;90.22;22.25;;;11.40;66.30;;;;;;4936199;28;20079;-67
2020/12/01 04:14:51;;;;;;;82.65;23.58;;;11.50;66.20;;;;;;4938111;28;20305;-63
2020/12/01 04:17:17;;;;;;;103.07;23.88;;;11.50;66.20;;;;;;4935232;28;20035;-63
2020/12/01 04:19:43;;;;;;;98.97;22.55;;;11.60;66.20;;;;;;4937610;28;20645;-63
2020/12/01 04:22:09;;;;;;;97.72;22.33;;;11.60;66.20;;;;;;4937300;28;20094;-63
2020/12/01 04:24:35;;;;;;;89.90;23.40;;;11.60;66.20;;;;;;4933692;28;20130;-63
2020/12/01 04:27:01;;;;;;;103.43;23.05;;;11.60;66.20;;;;;;4934070;28;20046;-63
2020/12/01 04:29:27;;;;;;;94.85;22.70;;;11.60;66.20;;;;;;4935282;28;20031;-63
2020/12/01 04:31:52;;;;;;;122.78;23.48;;;11.60;66.20;;;;;;4939466;28;20062;-63
2020/12/01 04:34:18;;;;;;;105.88;23.30;;;11.60;66.20;;;;;;4935355;28;20129;-63
2020/12/01 04:36:43;;;;;;;112.53;23.88;;;11.70;66.30;;;;;;4936095;28;20570;-63
2020/12/01 04:39:09;;;;;;;112.28;23.88;;;11.70;66.30;;;;;;4931340;28;20039;-63
2020/12/01 04:41:35;;;;;;;98.95;22.70;;;11.70;66.30;;;;;;4933672;28;20046;-63
2020/12/01 04:44:02;;;;;;;98.32;23.73;;;11.70;66.30;;;;;;4933712;28;20058;-63
2020/12/01 04:46:32;;;;;;;98.70;22.13;;;11.80;66.30;;;;;;4933005;28;20038;-63
2020/12/01 04:49:09;;;;;;;93.50;23.38;;;11.80;66.20;;;;;;4937577;28;20420;-63
2020/12/01 04:51:48;;;;;;;99.80;22.15;;;11.80;66.30;;;;;;4933372;28;20166;-63
2020/12/01 04:54:26;;;;;;;98.00;21.45;;;11.80;66.30;;;;;;4931887;28;20139;-63
2020/12/01 04:57:07;;;;;;;96.90;20.73;;;11.80;66.20;;;;;;4953670;28;20488;-63
2020/12/01 04:59:48;;;;;;;104.97;21.80;;;11.80;66.30;;;;;;4941207;28;20102;-63
2020/12/01 05:02:32;;;;;;;108.32;20.80;;;11.80;66.30;;;;;;4934427;28;20461;-63
2020/12/01 05:06:53;;;;;;;101.68;20.00;;;11.90;66.30;;;;;;4934090;28;20134;-63
2020/12/01 05:08:54;;;;;;;96.55;18.48;;;11.90;66.30;;;;;;4932488;28;20122;-67
2020/12/01 05:11:57;;;;;;;95.88;18.48;;;11.90;66.30;;;;;;4935554;28;20039;-65
2020/12/01 05:14:44;;;;;;;69.50;16.25;;;11.90;66.30;;;;;;4941491;28;20035;-63
2020/12/01 05:17:31;;;;;;;92.68;16.83;;;11.90;66.30;;;;;;4938511;28;20082;-63
2020/12/01 05:19:57;;;;;;;94.80;16.40;;;11.90;66.40;;;;;;4938555;28;20130;-63
2020/12/01 05:22:23;;;;;;;77.13;13.98;;;11.90;66.40;;;;;;4945059;28;20050;-63
2020/12/01 05:24:51;;;;;;;90.43;15.30;;;11.90;66.40;;;;;;4935394;28;20035;-63
2020/12/01 05:27:38;;;;;;;72.65;13.98;;;11.90;66.50;;;;;;4938269;28;20046;-63
2020/12/01 05:30:12;;;;;;;80.25;14.98;;;12.00;66.50;;;;;;4938250;28;20043;-63
2020/12/01 05:32:41;;;;;;;58.15;12.77;;;12.00;66.40;;;;;;4931520;28;20502;-63
2020/12/01 05:35:09;;;;;;;74.57;13.23;;;12.00;66.40;;;;;;4930638;28;20050;-63
2020/12/01 05:37:34;;;;;;;61.90;11.95;;;12.00;66.70;;;;;;4934830;28;20039;-63
2020/12/01 05:40:08;;;;;;;62.55;12.75;;;12.00;66.40;;;;;;4937381;28;20054;-63
2020/12/01 05:42:41;;;;;;;68.03;12.18;;;12.00;66.40;;;;;;4937479;28;21468;-63
2020/12/01 05:45:07;;;;;;;68.57;12.52;;;12.10;66.40;;;;;;4938101;28;20039;-63
2020/12/01 05:47:41;;;;;;;66.10;12.63;;;12.10;66.40;;;;;;4939058;28;20053;-63
2020/12/01 05:50:10;;;;;;;74.38;13.88;;;12.10;66.30;;;;;;4939906;28;20110;-63
2020/12/01 05:52:50;;;;;;;70.88;13.95;;;12.10;66.30;;;;;;4932252;28;20039;-63
2020/12/01 05:55:19;;;;;;;65.45;12.65;;;12.10;66.30;;;;;;4932553;28;20035;-63
2020/12/01 05:58:05;;;;;;;63.00;12.82;;;12.10;66.30;;;;;;4935526;28;20055;-63
2020/12/01 06:00:42;;;;;;;66.50;12.98;;;12.10;66.30;;;;;;4929331;28;20559;-63
2020/12/01 06:03:20;;;;;;;57.80;13.30;;;12.10;66.40;;;;;;4933077;28;20042;-63
2020/12/01 06:05:55;;;;;;;74.63;12.95;;;12.10;66.40;;;;;;4934172;28;20053;-63
2020/12/01 06:08:31;;;;;;;74.85;14.13;;;12.20;66.40;;;;;;4934943;28;20122;-63
2020/12/01 06:11:29;;;;;;;71.88;14.23;;;12.20;66.40;;;;;;4936010;28;20260;-63
2020/12/01 06:14:02;;;;;;;70.90;13.00;;;12.20;66.40;;;;;;4936152;28;20392;-63
2020/12/01 06:16:37;;;;;;;60.67;13.10;;;12.20;66.30;;;;;;4935860;28;20531;-63
2020/12/01 06:19:14;;;;;;;62.83;13.65;;;12.20;66.30;;;;;;4937803;28;20035;-63
2020/12/01 06:22:09;;;;;;;73.68;13.80;;;12.30;66.30;;;;;;4937396;28;20058;-63
2020/12/01 06:25:14;;;;;;;77.85;13.38;;;12.30;66.30;;;;;;4939026;28;20061;-63
2020/12/01 06:28:08;;;;;;;69.13;12.60;;;12.30;66.40;;;;;;4939307;28;20062;-63
2020/12/01 06:31:00;;;;;;;68.18;12.80;;;12.30;66.30;;;;;;4947976;28;20043;-63
2020/12/01 06:33:47;;;;;;;52.63;12.35;;;12.30;66.30;;;;;;4933933;28;20038;-63
2020/12/01 06:36:36;;;;;;;52.13;12.50;;;12.30;66.30;;;;;;4943712;28;20488;-63
2020/12/01 06:39:24;;;;;;;72.35;13.63;;;12.30;66.30;;;;;;4936888;28;20031;-63
2020/12/01 06:42:13;;;;;;;80.65;14.27;;;12.30;66.30;;;;;;4940270;28;20043;-63
2020/12/01 06:44:43;;;;;;;77.63;14.38;;;12.30;66.20;;;;;;4935620;28;20083;-63
2020/12/01 06:47:09;;;;;;;76.15;14.40;;;12.30;66.20;;;;;;4934552;28;20517;-63
2020/12/01 06:49:37;;;;;;;82.82;14.63;;;12.30;66.20;;;;;;4937856;28;20066;-63
2020/12/01 06:52:12;;;;;;;80.60;13.70;;;12.40;66.30;;;;;;4938717;28;20043;-63
2020/12/01 06:54:53;;;;;;;70.68;13.90;;;12.40;66.30;;;;;;4937651;28;20695;-63
2020/12/01 06:57:35;;;;;;;89.70;14.32;;;12.40;66.10;;;;;;4939268;28;20042;-63
2020/12/01 07:00:04;;;;;;;55.60;14.18;;;12.40;66.10;;;;;;4937859;28;20033;-63
2020/12/01 07:02:34;;;;;;;59.50;12.88;;;12.40;66.10;;;;;;4933194;28;20039;-63
2020/12/01 07:05:32;;;;;;;77.00;14.02;;;12.40;66.00;;;;;;4933628;28;20074;-63
2020/12/01 07:07:58;;;;;;;71.00;13.60;;;12.40;66.00;;;;;;4933812;28;20908;-63
2020/12/01 07:10:30;;;;;;;85.70;14.10;;;12.50;66.80;;;;;;4933063;28;20090;-63
2020/12/01 07:13:15;;;;;;;70.05;14.13;;;12.40;66.00;;;;;;4928552;28;20048;-64
2020/12/01 07:15:42;;;;;;;58.80;12.70;;;12.50;66.00;;;;;;4931390;28;20045;-63
2020/12/01 07:18:16;;;;;;;56.45;13.23;;;12.50;66.80;;;;;;4934363;28;20126;-63
2020/12/01 07:21:20;;;;;;;63.58;14.25;;;12.50;66.00;;;;;;4935006;28;20047;-67
2020/12/01 07:24:10;;;;;;;67.90;12.80;;;12.50;66.00;;;;;;4929840;28;20445;-63
2020/12/01 07:26:41;;;;;;;73.85;13.27;;;12.50;65.90;;;;;;4930304;28;20040;-63
2020/12/01 07:29:33;;;;;;;62.45;13.93;;;12.50;65.90;;;;;;4926466;28;20050;-63
2020/12/01 07:32:27;;;;;;;64.53;12.60;;;12.50;66.00;;;;;;4929213;28;20117;-63
2020/12/01 07:35:11;;;;;;;68.07;12.68;;;12.50;65.90;;;;;;4931896;28;20035;-63
2020/12/01 07:37:57;;;;;;;57.38;12.15;;;12.50;65.90;;;;;;4925415;28;20188;-63
2020/12/01 07:40:28;;;;;;;58.15;12.63;;;12.60;65.90;;;;;;4933223;28;20039;-63
2020/12/01 07:42:58;;;;;;;86.50;13.18;;;12.50;66.50;;;;;;4929021;28;20043;-63
2020/12/01 07:45:25;;;;;;;63.53;13.43;;;12.50;65.80;;;;;;4933854;28;20763;-63
2020/12/01 07:48:02;;;;;;;68.18;12.82;;;12.50;65.80;;;;;;4933375;28;20040;-63
2020/12/01 07:50:30;;;;;;;64.30;13.00;;;12.60;65.90;;;;;;4927435;28;20063;-63
2020/12/01 07:53:09;;;;;;;57.88;12.23;;;12.60;65.90;;;;;;4931884;28;20459;-63
2020/12/01 07:55:49;;;;;;;58.15;12.20;;;12.60;65.90;;;;;;4930855;28;20043;-63
2020/12/01 07:58:17;;;;;;;61.85;12.88;;;12.60;65.90;;;;;;4930959;28;20079;-63
2020/12/01 08:00:51;;;;;;;58.70;12.73;;;12.60;65.90;;;;;;4927866;28;20118;-63
2020/12/01 08:03:26;;;;;;;58.42;13.65;;;12.60;65.90;;;;;;4929885;28;20047;-63
2020/12/01 08:05:53;;;;;;;69.40;13.63;;;12.70;65.90;;;;;;4936144;28;20437;-63
2020/12/01 08:08:21;;;;;;;69.25;13.25;;;12.60;65.90;;;;;;4934789;28;20067;-63
2020/12/01 08:10:49;;;;;;;65.95;13.25;;;12.70;66.00;;;;;;4935205;28;20065;-63
2020/12/01 08:13:19;;;;;;;81.78;15.02;;;12.60;65.90;;;;;;4952274;28;20571;-63
2020/12/01 08:15:46;;;;;;;84.88;15.50;;;12.70;66.10;;;;;;4934989;28;20096;-63
2020/12/01 08:18:15;;;;;;;69.95;14.10;;;12.60;65.90;;;;;;4933677;28;20142;-63
2020/12/01 08:20:42;;;;;;;89.45;14.95;;;12.60;65.90;;;;;;4937312;28;20158;-63
2020/12/01 08:23:23;;;;;;;87.45;15.52;;;12.60;66.00;;;;;;4932718;28;20058;-63
2020/12/01 08:26:08;;;;;;;75.18;14.32;;;12.60;66.10;;;;;;4938077;28;20162;-63
2020/12/01 08:28:39;;;;;;;80.30;13.85;;;12.60;66.00;;;;;;4937535;28;20044;-63
2020/12/01 08:31:12;;;;;;;77.07;13.25;;;12.60;66.10;;;;;;4933956;28;20045;-63
2020/12/01 08:34:09;;;;;;;91.28;15.15;;;12.50;66.00;;;;;;4936226;28;20134;-63
2020/12/01 08:36:55;;;;;;;79.03;14.60;;;12.50;66.00;;;;;;4936608;28;20047;-63
2020/12/01 08:39:50;;;;;;;82.15;15.73;;;12.50;66.00;;;;;;4935863;28;20503;-63
2020/12/01 08:42:21;;;;;;;94.45;17.20;;;12.50;66.10;;;;;;4938913;28;20036;-63
2020/12/01 08:45:13;;;;;;;99.43;18.23;;;12.50;66.10;;;;;;4938912;28;20062;-63
2020/12/01 08:47:41;;;;;;;103.97;18.77;;;12.50;66.20;;;;;;4933213;28;20591;-63
2020/12/01 08:50:24;;;;;;;107.35;19.20;;;12.50;66.10;;;;;;4939413;28;20039;-63
2020/12/01 08:53:00;;;;;;;119.32;21.80;;;12.50;66.10;;;;;;4936875;28;20039;-63
2020/12/01 08:55:33;;;;;;;118.82;23.10;;;12.50;66.00;;;;;;4936323;28;23157;-63
2020/12/01 08:58:24;;;;;;;96.60;21.70;;;12.50;66.00;;;;;;4935931;28;20047;-63
2020/12/01 09:01:06;;;;;;;128.57;22.95;;;12.50;65.80;;;;;;4934115;28;20792;-63
2020/12/01 09:03:33;;;;;;;117.50;22.17;;;12.40;65.90;;;;;;4935180;28;20040;-63
2020/12/01 09:06:00;;;;;;;142.38;25.13;;;12.40;66.00;;;;;;4939993;28;20585;-63
2020/12/01 09:11:24;;;;;;;141.07;25.92;;;12.40;66.00;;;;;;4939445;28;20054;-63
2020/12/01 09:13:58;;;;;;;125.10;25.55;;;12.40;66.00;;;;;;4937585;28;20511;-63
2020/12/01 09:19:54;;;;;;;134.63;27.73;;;12.40;65.90;;;;;;4931869;28;20039;-63
2020/12/01 09:22:05;;;;;;;120.30;26.23;;;12.40;66.00;;;;;;4940932;28;20201;-63
2020/12/01 09:24:31;;;;;;;125.43;26.73;;;12.40;65.60;;;;;;4963243;23;20046;-64
2020/12/01 09:27:02;;;;;;;139.02;27.63;;;12.30;65.60;;;;;;4960894;28;20039;-64
2020/12/01 09:29:28;;;;;;;127.97;27.88;;;12.30;65.70;;;;;;4960791;28;20045;-64
2020/12/01 09:31:54;;;;;;;100.32;23.77;;;12.30;65.80;;;;;;4962997;28;20031;-64
2020/12/01 09:34:19;;;;;;;109.50;24.17;;;12.30;65.70;;;;;;4976908;28;20514;-64
2020/12/01 09:36:45;;;;;;;116.10;25.33;;;12.30;65.60;;;;;;4965747;28;20039;-64
2020/12/01 09:39:11;;;;;;;100.90;24.80;;;12.30;65.70;;;;;;4962120;28;20109;-64
2020/12/01 09:41:38;;;;;;;104.88;25.13;;;12.40;66.00;;;;;;4966145;28;20089;-64
2020/12/01 09:44:14;;;;;;;95.90;22.65;;;12.40;66.00;;;;;;4966259;28;20368;-64
2020/12/01 09:46:51;;;;;;;105.30;25.65;;;12.40;65.90;;;;;;4966245;28;21082;-65
2020/12/01 09:49:16;;;;;;;90.43;23.95;;;12.40;65.70;;;;;;4965400;28;20109;-64
2020/12/01 09:51:52;;;;;;;100.35;26.33;;;12.50;65.90;;;;;;4963987;28;20507;-64
2020/12/01 09:54:35;;;;;;;107.93;24.25;;;12.50;66.10;;;;;;4963446;28;20030;-64
2020/12/01 09:57:06;;;;;;;89.07;23.40;;;12.60;66.10;;;;;;4964240;28;20050;-64
2020/12/01 09:59:43;;;;;;;86.10;23.70;;;12.60;65.80;;;;;;4961850;28;20655;-64
2020/12/01 10:10:49;;;;;;;74.22;20.00;;;12.60;65.70;;;;;;4965784;28;20117;-65
2020/12/01 10:12:58;;;;;;;72.10;20.30;;;12.60;65.60;;;;;;4962355;28;20460;-64
2020/12/01 10:21:51;;;;;;;72.55;19.40;;;12.60;65.30;;;;;;4964672;28;20518;-64
2020/12/01 10:26:09;;;;;;;61.30;17.98;;;12.50;65.20;;;;;;4965253;28;20046;-64
2020/12/01 10:36:54;;;;;;;55.88;18.00;;;12.30;65.30;;;;;;4967544;28;20046;-64
2020/12/01 10:39:20;;;;;;;55.53;18.10;;;12.20;65.30;;;;;;4963004;28;20054;-64
2020/12/01 10:41:46;;;;;;;61.50;18.00;;;12.20;65.50;;;;;;4964124;28;20463;-64
2020/12/01 10:44:12;;;;;;;57.40;19.30;;;12.20;65.50;;;;;;4960981;28;20043;-64
2020/12/01 10:46:38;;;;;;;54.38;18.42;;;12.20;65.50;;;;;;4961539;28;20039;-64
2020/12/01 10:49:04;;;;;;;55.63;19.30;;;12.20;65.50;;;;;;4961167;28;20026;-64
2020/12/01 10:51:30;;;;;;;59.70;20.58;;;12.20;65.50;;;;;;4962103;28;20034;-64
2020/12/01 10:53:55;;;;;;;62.95;20.52;;;12.20;65.40;;;;;;4962741;28;20037;-64
2020/12/01 10:56:21;;;;;;;60.42;22.13;;;12.30;65.50;;;;;;4963432;28;20038;-64
2020/12/01 10:58:47;;;;;;;71.18;24.55;;;12.20;65.30;;;;;;4963327;28;20058;-64
2020/12/01 11:01:13;;;;;;;63.67;23.48;;;12.20;65.20;;;;;;4963974;28;20394;-64
2020/12/01 11:03:40;;;;;;;68.60;24.52;;;12.20;65.10;;;;;;4962295;28;20045;-64
2020/12/01 11:06:05;;;;;;;71.07;24.50;;;12.10;65.10;;;;;;4964351;28;20585;-64
2020/12/01 11:08:31;;;;;;;62.20;23.58;;;12.10;65.10;;;;;;4960339;28;20063;-64
2020/12/01 11:10:57;;;;;;;66.82;24.67;;;12.10;65.10;;;;;;4965586;28;20058;-64
2020/12/01 11:13:22;;;;;;;72.68;25.58;;;12.10;65.10;;;;;;4957830;28;20492;-64
2020/12/01 11:15:48;;;;;;;71.65;25.45;;;12.10;65.10;;;;;;4958956;28;20034;-64
2020/12/01 11:18:14;;;;;;;62.40;24.35;;;12.00;65.10;;;;;;4960026;28;20039;-64
2020/12/01 11:20:39;;;;;;;64.85;24.45;;;12.00;65.10;;;;;;4962902;28;20133;-64
2020/12/01 11:23:05;;;;;;;57.78;22.88;;;12.00;65.10;;;;;;4962661;28;20232;-64
2020/12/01 11:25:30;;;;;;;52.40;22.25;;;12.00;65.10;;;;;;4964456;28;20134;-64
2020/12/01 11:27:56;;;;;;;56.45;22.02;;;12.00;65.20;;;;;;4963011;28;20237;-64
2020/12/01 11:30:23;;;;;;;51.10;20.10;;;12.00;65.10;;;;;;4964102;28;20085;-64
2020/12/01 11:32:49;;;;;;;41.33;18.88;;;11.90;65.10;;;;;;4961642;28;20042;-64
2020/12/01 11:35:17;;;;;;;38.80;16.10;;;11.90;65.10;;;;;;4961712;28;20043;-66
2020/12/01 11:37:43;;;;;;;33.35;13.43;;;11.90;65.20;;;;;;4960826;28;20221;-66
2020/12/01 11:40:11;;;;;;;25.35;13.27;;;11.90;65.00;;;;;;4967484;28;20042;-66
2020/12/01 11:42:36;;;;;;;34.92;13.82;;;11.90;65.20;;;;;;4969243;28;20427;-66
2020/12/01 11:45:04;;;;;;;33.38;13.50;;;11.90;65.30;;;;;;4968253;28;20066;-66
2020/12/01 11:47:29;;;;;;;27.50;13.00;;;11.90;65.50;;;;;;4964115;28;20026;-66
2020/12/01 11:49:55;;;;;;;26.73;14.27;;;11.90;65.60;;;;;;4964566;28;20045;-66
2020/12/01 11:52:21;;;;;;;27.63;13.13;;;12.00;65.80;;;;;;4968645;28;20403;-64
2020/12/01 11:54:46;;;;;;;23.95;12.65;;;12.10;65.70;;;;;;4967172;28;20038;-65
2020/12/01 11:57:14;;;;;;;23.70;12.50;;;12.20;65.40;;;;;;4968937;28;20043;-65
2020/12/01 11:59:40;;;;;;;20.58;11.70;;;12.30;65.10;;;;;;4966214;28;20134;-64
2020/12/01 12:02:05;;;;;;;16.67;10.07;;;12.30;65.00;;;;;;4970228;28;20138;-64
2020/12/01 12:04:31;;;;;;;21.02;10.65;;;12.40;64.80;;;;;;4966763;28;20046;-64
2020/12/01 12:06:57;;;;;;;17.73;10.15;;;12.40;64.40;;;;;;4968334;28;20464;-64
2020/12/01 12:09:22;;;;;;;18.77;10.35;;;12.30;64.20;;;;;;4965497;28;20082;-65
2020/12/01 12:11:48;;;;;;;15.38;10.18;;;12.30;64.20;;;;;;4967104;28;20042;-67
2020/12/01 12:14:14;;;;;;;16.35;10.32;;;12.30;64.10;;;;;;4966910;28;20061;-67
2020/12/01 12:16:39;;;;;;;19.60;10.25;;;12.30;63.80;;;;;;4967384;28;20074;-65
2020/12/01 12:19:05;;;;;;;18.95;10.23;;;12.30;63.80;;;;;;4965529;28;20496;-65
2020/12/01 12:21:31;;;;;;;16.55;9.80;;;12.20;63.60;;;;;;4959993;28;20053;-64
2020/12/01 12:23:56;;;;;;;18.27;10.82;;;12.20;63.60;;;;;;4963908;28;20066;-64
2020/12/01 12:26:22;;;;;;;18.52;11.35;;;12.10;63.40;;;;;;4966119;28;20195;-65
2020/12/01 12:28:47;;;;;;;19.75;9.95;;;12.10;63.50;;;;;;4962316;28;20066;-65
2020/12/01 12:31:15;;;;;;;15.43;9.38;;;12.10;63.40;;;;;;4967429;28;20075;-65
2020/12/01 12:33:41;;;;;;;15.82;9.90;;;12.00;63.40;;;;;;4966036;28;20070;-64
2020/12/01 12:36:07;;;;;;;15.77;9.75;;;11.90;63.50;;;;;;4981842;28;20058;-64
2020/12/01 12:38:33;;;;;;;13.15;8.43;;;11.90;63.60;;;;;;4965156;28;20074;-64
2020/12/01 12:40:59;;;;;;;12.88;7.63;;;11.90;63.70;;;;;;4967092;28;20526;-64
2020/12/01 12:43:28;;;;;;;13.25;8.10;;;11.90;63.50;;;;;;4966578;28;20043;-64
2020/12/01 12:45:54;;;;;;;12.13;7.85;;;11.80;63.60;;;;;;4963771;28;20042;-64
2020/12/01 12:48:22;;;;;;;11.43;7.38;;;11.80;63.60;;;;;;4963890;28;20522;-64
2020/12/01 12:50:47;;;;;;;11.63;7.40;;;11.80;63.70;;;;;;4965502;28;20043;-65
2020/12/01 12:53:13;;;;;;;13.15;7.90;;;11.80;63.70;;;;;;4964545;28;20042;-65
2020/12/01 12:55:39;;;;;;;10.50;7.22;;;11.80;63.80;;;;;;4964619;28;20051;-64
2020/12/01 12:58:05;;;;;;;10.65;7.38;;;11.80;63.80;;;;;;4968270;28;20043;-65
2020/12/01 13:00:30;;;;;;;12.40;7.32;;;11.80;63.60;;;;;;4961857;28;20037;-64
2020/12/01 13:02:56;;;;;;;10.13;6.32;;;11.70;63.40;;;;;;4965883;28;20073;-65
2020/12/01 13:05:23;;;;;;;15.32;7.38;;;11.70;63.60;;;;;;4960334;28;20053;-65
2020/12/01 13:07:49;;;;;;;12.23;7.22;;;11.70;63.50;;;;;;4961208;28;20039;-65
2020/12/01 13:10:15;;;;;;;13.70;7.28;;;11.60;63.40;;;;;;4965423;28;20043;-65
2020/12/01 13:12:41;;;;;;;13.10;8.13;;;11.60;63.50;;;;;;4963367;28;20038;-65
2020/12/01 13:15:08;;;;;;;12.02;7.13;;;11.60;63.50;;;;;;4961684;28;20557;-65
2020/12/01 13:17:34;;;;;;;10.73;6.80;;;11.60;63.50;;;;;;4962613;28;20058;-65